CheckWX is a tool to help pilots better visualize weather data.  It is not intended as a substitute for an official pre-flight weather briefing.

05:14:04 UTC

KIOW METAR
Iowa City Municipal Airport
Iowa City, Iowa, USA
Current

22 mins ago

KIOW 170452Z AUTO 11006KT 10SM CLR 22/18 A3009 RMK AO2 SLP185 T02170178
Observed
Sep-17 @ 04:52 UTC
Wind
  • 110° at 6 KTS
Visibility
10 SM
Flight Rules
VFR
Cloud Levels
  • Clear skies
Temperature
22°C / 72°F
Dewpoint
18°C / 64°F
Humidity
78%
Altimeter
30.09" Hg
Pressure
1018.92 hPa
Previous

1 hour ago

KIOW 170352Z AUTO 12005KT 10SM CLR 22/18 A3009 RMK AO2 SLP185 T02170178
Observed
Sep-17 @ 03:52 UTC
Wind
  • 120° at 5 KTS
Visibility
10 SM
Flight Rules
VFR
Cloud Levels
  • Clear skies
Temperature
22°C / 72°F
Dewpoint
18°C / 64°F
Humidity
78%
Altimeter
30.09" Hg
Pressure
1018.92 hPa
Previous

2 hours ago

KIOW 170252Z AUTO 11007KT 10SM CLR 23/18 A3009 RMK AO2 SLP183 T02330183 53004
Observed
Sep-17 @ 02:52 UTC
Wind
  • 110° at 7 KTS
Visibility
10 SM
Flight Rules
VFR
Cloud Levels
  • Clear skies
Temperature
23°C / 73°F
Dewpoint
18°C / 64°F
Humidity
74%
Altimeter
30.09" Hg
Pressure
1018.92 hPa